Time;durP1;ratioP1;P1;durP2;ratioP2;P2;SDS_P1;SDS_P2;PMS_P1;PMS_P2;Temp;Humidity;BMP_temperature;BMP_pressure;BME280_temperature;BME280_humidity;BME280_pressure;Samples;Min_cycle;Max_cycle;Signal;HPM_P1;HPM_P2
2022/06/26 00:01:00;;;;;;;;;;;;;;;;;;5101451;28;1078;-63
2022/06/26 00:03:25;;;;;;;;;;;;;;;;;;5101679;28;841;-63
2022/06/26 00:05:50;;;;;;;;;;;;;;;;;;5101420;28;1008;-64
2022/06/26 00:08:16;;;;;;;;;;;;;;;;;;5101203;28;1242;-63
2022/06/26 00:10:41;;;;;;;;;;;;;;;;;;5101376;28;889;-63
2022/06/26 00:13:06;;;;;;;;;;;;;;;;;;5101481;28;802;-64
2022/06/26 00:15:31;;;;;;;;;;;;;;;;;;5101229;28;878;-63
2022/06/26 00:17:57;;;;;;;;;;;;;;;;;;5104136;28;1894;-63
2022/06/26 00:20:22;;;;;;;;;;;;;;;;;;5105111;28;798;-63
2022/06/26 00:22:47;;;;;;;;;;;;;;;;;;5104925;28;817;-63
2022/06/26 00:25:13;;;;;;;;;;;;;;;;;;5105105;28;980;-63
2022/06/26 00:27:38;;;;;;;;;;;;;;;;;;5104610;28;1265;-63
2022/06/26 00:30:03;;;;;;;;;;;;;;;;;;5105216;28;866;-63
2022/06/26 00:32:28;;;;;;;;;;;;;;;;;;5104678;28;849;-63
2022/06/26 00:34:54;;;;;;;;;;;;;;;;;;5104813;28;1039;-64
2022/06/26 00:37:19;;;;;;;;;;;;;;;;;;5104135;28;1905;-63
2022/06/26 00:39:44;;;;;;;;;;;;;;;;;;5104904;28;845;-63
2022/06/26 00:42:09;;;;;;;;;;;;;;;;;;5104473;28;798;-63
2022/06/26 00:44:34;;;;;;;;;;;;;;;;;;5104723;28;976;-63
2022/06/26 00:47:00;;;;;;;;;;;;;;;;;;5104120;28;1211;-63
2022/06/26 00:49:25;;;;;;;;;;;;;;;;;;5104605;28;969;-64
2022/06/26 00:51:51;;;;;;;;;;;;;;;;;;5104535;28;984;-64
2022/06/26 00:54:17;;;;;;;;;;;;;;;;;;5104355;28;837;-63
2022/06/26 00:56:42;;;;;;;;;;;;;;;;;;5104019;28;1906;-64
2022/06/26 00:59:07;;;;;;;;;;;;;;;;;;5104286;28;852;-63
2022/06/26 01:01:35;;;;;;;;;;;;;;;;;;5104445;28;854;-64
2022/06/26 01:04:01;;;;;;;;;;;;;;;;;;5104240;28;872;-64
2022/06/26 01:06:27;;;;;;;;;;;;;;;;;;5103960;28;1180;-63
2022/06/26 01:08:53;;;;;;;;;;;;;;;;;;5104102;28;844;-63
2022/06/26 01:11:25;;;;;;;;;;;;;;;;;;5104437;28;860;-65
2022/06/26 01:13:51;;;;;;;;;;;;;;;;;;5104306;28;790;-64
2022/06/26 01:16:17;;;;;;;;;;;;;;;;;;5102571;28;1163;-64
2022/06/26 01:18:48;;;;;;;;;;;;;;;;;;5104060;28;1965;-63
2022/06/26 01:21:14;;;;;;;;;;;;;;;;;;5104119;28;904;-63
2022/06/26 01:23:39;;;;;;;;;;;;;;;;;;5104217;28;786;-64
2022/06/26 01:26:04;;;;;;;;;;;;;;;;;;5103596;28;1140;-64
2022/06/26 01:28:30;;;;;;;;;;;;;;;;;;5103799;28;802;-64
2022/06/26 01:30:55;;;;;;;;;;;;;;;;;;5103941;28;810;-64
2022/06/26 01:33:20;;;;;;;;;;;;;;;;;;5103884;28;1019;-64
2022/06/26 01:35:45;;;;;;;;;;;;;;;;;;5103577;28;861;-64
2022/06/26 01:38:11;;;;;;;;;;;;;;;;;;5103569;28;1897;-64
2022/06/26 01:40:37;;;;;;;;;;;;;;;;;;5103583;28;912;-63
2022/06/26 01:43:02;;;;;;;;;;;;;;;;;;5103865;28;953;-64
2022/06/26 01:45:27;;;;;;;;;;;;;;;;;;5103599;28;960;-63
2022/06/26 01:47:54;;;;;;;;;;;;;;;;;;5103779;28;1286;-63
2022/06/26 01:50:19;;;;;;;;;;;;;;;;;;5103669;28;988;-63
2022/06/26 01:52:44;;;;;;;;;;;;;;;;;;5103685;28;821;-63
2022/06/26 01:55:09;;;;;;;;;;;;;;;;;;5103563;28;988;-63
2022/06/26 01:57:34;;;;;;;;;;;;;;;;;;5102797;28;1886;-63
2022/06/26 02:00:00;;;;;;;;;;;;;;;;;;5103614;28;885;-63
2022/06/26 02:02:25;;;;;;;;;;;;;;;;;;5103293;28;846;-63
2022/06/26 02:04:50;;;;;;;;;;;;;;;;;;5103575;28;1035;-63
2022/06/26 02:07:15;;;;;;;;;;;;;;;;;;5101477;28;1493;-63
2022/06/26 02:15:08;;;;;;;;;;;;;;;;;;5103693;28;632;-63
2022/06/26 02:17:33;;;;;;;;;;;;;;;;;;5102581;28;1960;-63
2022/06/26 02:19:58;;;;;;;;;;;;;;;;;;5103265;28;964;-64
2022/06/26 02:22:24;;;;;;;;;;;;;;;;;;5102932;28;981;-64
2022/06/26 02:24:49;;;;;;;;;;;;;;;;;;5101798;28;1004;-64
2022/06/26 02:27:14;;;;;;;;;;;;;;;;;;5102710;28;1266;-64
2022/06/26 02:29:39;;;;;;;;;;;;;;;;;;5103050;28;849;-64
2022/06/26 02:32:05;;;;;;;;;;;;;;;;;;5103027;28;1000;-64
2022/06/26 02:34:30;;;;;;;;;;;;;;;;;;5102565;28;920;-64
2022/06/26 02:36:55;;;;;;;;;;;;;;;;;;5102453;28;1980;-63
2022/06/26 02:39:20;;;;;;;;;;;;;;;;;;5102123;28;833;-63
2022/06/26 02:41:45;;;;;;;;;;;;;;;;;;5102858;28;1039;-63
2022/06/26 02:44:10;;;;;;;;;;;;;;;;;;5102656;28;857;-63
2022/06/26 02:46:36;;;;;;;;;;;;;;;;;;5102385;28;1187;-63
2022/06/26 02:49:01;;;;;;;;;;;;;;;;;;5102647;28;1036;-63
2022/06/26 02:51:26;;;;;;;;;;;;;;;;;;5102555;28;924;-64
2022/06/26 02:53:52;;;;;;;;;;;;;;;;;;5102745;28;822;-64
2022/06/26 02:56:17;;;;;;;;;;;;;;;;;;5102097;28;1254;-63
2022/06/26 02:58:42;;;;;;;;;;;;;;;;;;5101098;28;1889;-64
2022/06/26 03:01:07;;;;;;;;;;;;;;;;;;5102349;28;984;-63
2022/06/26 03:03:33;;;;;;;;;;;;;;;;;;5102628;28;824;-63
2022/06/26 03:05:58;;;;;;;;;;;;;;;;;;5102120;28;1234;-63
2022/06/26 03:08:23;;;;;;;;;;;;;;;;;;5102125;28;878;-63
2022/06/26 03:10:50;;;;;;;;;;;;;;;;;;5102243;28;853;-63
2022/06/26 03:13:15;;;;;;;;;;;;;;;;;;5102421;28;845;-63
2022/06/26 03:15:41;;;;;;;;;;;;;;;;;;5102100;28;1000;-63
2022/06/26 03:18:06;;;;;;;;;;;;;;;;;;5101734;28;1890;-63
2022/06/26 03:20:31;;;;;;;;;;;;;;;;;;5102185;28;846;-64
2022/06/26 03:22:57;;;;;;;;;;;;;;;;;;5102017;28;953;-64
2022/06/26 03:25:22;;;;;;;;;;;;;;;;;;5102225;28;806;-64
2022/06/26 03:27:47;;;;;;;;;;;;;;;;;;5101581;28;1290;-64
2022/06/26 03:30:13;;;;;;;;;;;;;;;;;;5102147;28;791;-64
2022/06/26 03:32:38;;;;;;;;;;;;;;;;;;5101851;28;1143;-63
2022/06/26 03:35:04;;;;;;;;;;;;;;;;;;5101934;28;799;-63
2022/06/26 03:37:29;;;;;;;;;;;;;;;;;;5101490;28;1889;-63
2022/06/26 03:39:54;;;;;;;;;;;;;;;;;;5102089;28;853;-63
2022/06/26 03:42:19;;;;;;;;;;;;;;;;;;5100427;28;1282;-63
2022/06/26 03:44:45;;;;;;;;;;;;;;;;;;5101948;28;933;-63
2022/06/26 03:47:10;;;;;;;;;;;;;;;;;;5101460;28;1191;-63
2022/06/26 03:49:35;;;;;;;;;;;;;;;;;;5101707;28;988;-63
2022/06/26 03:52:00;;;;;;;;;;;;;;;;;;5100662;28;829;-63
2022/06/26 03:54:25;;;;;;;;;;;;;;;;;;5101841;28;861;-63
2022/06/26 03:56:51;;;;;;;;;;;;;;;;;;5101559;28;1889;-63
2022/06/26 03:59:16;;;;;;;;;;;;;;;;;;5101596;28;955;-63
2022/06/26 04:01:41;;;;;;;;;;;;;;;;;;5101716;28;794;-63
2022/06/26 04:04:07;;;;;;;;;;;;;;;;;;5101538;28;809;-63
2022/06/26 04:06:32;;;;;;;;;;;;;;;;;;5101263;28;1286;-64
2022/06/26 04:08:57;;;;;;;;;;;;;;;;;;5101476;28;1012;-63
2022/06/26 04:11:23;;;;;;;;;;;;;;;;;;5101543;28;1032;-63
2022/06/26 04:13:49;;;;;;;;;;;;;;;;;;5101560;28;835;-64
2022/06/26 04:16:15;;;;;;;;;;;;;;;;;;5101129;28;1195;-63
2022/06/26 04:18:40;;;;;;;;;;;;;;;;;;5101245;28;1897;-63
2022/06/26 04:21:05;;;;;;;;;;;;;;;;;;5101115;28;909;-64
2022/06/26 04:23:30;;;;;;;;;;;;;;;;;;5101465;28;830;-65
2022/06/26 04:25:56;;;;;;;;;;;;;;;;;;5101136;28;1049;-63
2022/06/26 04:28:21;;;;;;;;;;;;;;;;;;5100968;28;1252;-63
2022/06/26 04:30:46;;;;;;;;;;;;;;;;;;5101004;28;818;-63
2022/06/26 04:33:11;;;;;;;;;;;;;;;;;;5101270;28;889;-63
2022/06/26 04:35:37;;;;;;;;;;;;;;;;;;5100967;28;1031;-63
2022/06/26 04:38:02;;;;;;;;;;;;;;;;;;5100792;28;1902;-63
2022/06/26 04:40:28;;;;;;;;;;;;;;;;;;5100959;28;806;-63
2022/06/26 04:42:53;;;;;;;;;;;;;;;;;;5101141;28;965;-63
2022/06/26 04:45:19;;;;;;;;;;;;;;;;;;5101057;28;798;-63
2022/06/26 04:47:44;;;;;;;;;;;;;;;;;;5100537;28;1258;-63
2022/06/26 04:50:09;;;;;;;;;;;;;;;;;;5101312;28;770;-63
2022/06/26 04:52:35;;;;;;;;;;;;;;;;;;5100893;28;902;-63
2022/06/26 04:55:00;;;;;;;;;;;;;;;;;;5101041;28;996;-64
2022/06/26 04:57:25;;;;;;;;;;;;;;;;;;5100326;28;1962;-64
2022/06/26 04:59:50;;;;;;;;;;;;;;;;;;5100893;28;964;-64
2022/06/26 05:02:16;;;;;;;;;;;;;;;;;;5100937;28;890;-64
2022/06/26 05:04:41;;;;;;;;;;;;;;;;;;5104443;28;952;-64
2022/06/26 05:07:06;;;;;;;;;;;;;;;;;;5103883;28;1191;-64
2022/06/26 05:09:32;;;;;;;;;;;;;;;;;;5104351;28;794;-64
2022/06/26 05:11:57;;;;;;;;;;;;;;;;;;5104318;28;933;-63
2022/06/26 05:14:23;;;;;;;;;;;;;;;;;;5104104;28;1063;-63
2022/06/26 05:16:48;;;;;;;;;;;;;;;;;;5103937;28;1955;-64
2022/06/26 05:19:13;;;;;;;;;;;;;;;;;;5104031;28;989;-64
2022/06/26 05:21:39;;;;;;;;;;;;;;;;;;5104090;28;941;-65
2022/06/26 05:24:04;;;;;;;;;;;;;;;;;;5103914;28;968;-63
2022/06/26 05:26:29;;;;;;;;;;;;;;;;;;5103785;28;1183;-63
2022/06/26 05:28:54;;;;;;;;;;;;;;;;;;5103892;28;848;-63
2022/06/26 05:31:20;;;;;;;;;;;;;;;;;;5104045;28;797;-64
2022/06/26 05:33:45;;;;;;;;;;;;;;;;;;5103623;28;919;-64
2022/06/26 05:36:10;;;;;;;;;;;;;;;;;;5103708;28;1222;-64
2022/06/26 05:38:36;;;;;;;;;;;;;;;;;;5103534;28;1901;-64
2022/06/26 05:41:02;;;;;;;;;;;;;;;;;;5103731;28;960;-64
2022/06/26 05:43:27;;;;;;;;;;;;;;;;;;5103820;28;901;-63
2022/06/26 05:45:53;;;;;;;;;;;;;;;;;;5103551;28;928;-64
2022/06/26 05:48:18;;;;;;;;;;;;;;;;;;5103359;28;1207;-64
2022/06/26 05:50:43;;;;;;;;;;;;;;;;;;5103428;28;866;-64
2022/06/26 05:53:08;;;;;;;;;;;;;;;;;;5103723;28;976;-63
2022/06/26 05:55:34;;;;;;;;;;;;;;;;;;5103414;28;948;-64
2022/06/26 05:57:59;;;;;;;;;;;;;;;;;;5103581;28;1893;-64
2022/06/26 06:00:24;;;;;;;;;;;;;;;;;;5103216;28;924;-64
2022/06/26 06:02:50;;;;;;;;;;;;;;;;;;5103572;28;896;-63
2022/06/26 06:05:15;;;;;;;;;;;;;;;;;;5103294;28;806;-63
2022/06/26 06:07:40;;;;;;;;;;;;;;;;;;5103076;28;1289;-63
2022/06/26 06:10:06;;;;;;;;;;;;;;;;;;5103525;28;837;-63
2022/06/26 06:12:32;;;;;;;;;;;;;;;;;;5103350;28;853;-63
2022/06/26 06:14:57;;;;;;;;;;;;;;;;;;5102384;28;841;-63
2022/06/26 06:17:37;;;;;;;;;;;;;;;;;;5102791;28;1893;-63
2022/06/26 06:20:04;;;;;;;;;;;;;;;;;;5103320;28;889;-63
2022/06/26 06:22:29;;;;;;;;;;;;;;;;;;5103028;28;1329;-63
2022/06/26 06:24:54;;;;;;;;;;;;;;;;;;5103213;28;929;-63
2022/06/26 06:27:19;;;;;;;;;;;;;;;;;;5102652;28;1275;-63
2022/06/26 06:29:45;;;;;;;;;;;;;;;;;;5102999;28;881;-63
2022/06/26 06:32:10;;;;;;;;;;;;;;;;;;5102755;28;870;-63
2022/06/26 06:34:35;;;;;;;;;;;;;;;;;;5102911;28;977;-63
2022/06/26 06:37:00;;;;;;;;;;;;;;;;;;5102484;28;1960;-63
2022/06/26 06:39:25;;;;;;;;;;;;;;;;;;5102725;28;1035;-64
2022/06/26 06:41:51;;;;;;;;;;;;;;;;;;5102918;28;988;-64
2022/06/26 06:44:16;;;;;;;;;;;;;;;;;;5102931;28;827;-64
2022/06/26 06:46:41;;;;;;;;;;;;;;;;;;5102440;28;1186;-64
2022/06/26 06:49:06;;;;;;;;;;;;;;;;;;5102709;28;881;-64
2022/06/26 06:51:32;;;;;;;;;;;;;;;;;;5102702;28;849;-64
2022/06/26 06:53:57;;;;;;;;;;;;;;;;;;5102561;28;822;-64
2022/06/26 06:56:22;;;;;;;;;;;;;;;;;;5102371;28;1282;-64
2022/06/26 06:58:47;;;;;;;;;;;;;;;;;;5102267;28;1957;-64
2022/06/26 07:01:12;;;;;;;;;;;;;;;;;;5102580;28;873;-64
2022/06/26 07:03:39;;;;;;;;;;;;;;;;;;5102306;28;809;-64
2022/06/26 07:06:04;;;;;;;;;;;;;;;;;;5102369;28;1273;-64
2022/06/26 07:08:29;;;;;;;;;;;;;;;;;;5102258;28;868;-64
2022/06/26 07:10:54;;;;;;;;;;;;;;;;;;5101887;28;885;-64
2022/06/26 07:13:20;;;;;;;;;;;;;;;;;;5102463;28;865;-64
2022/06/26 07:15:45;;;;;;;;;;;;;;;;;;5102194;28;913;-64
2022/06/26 07:18:10;;;;;;;;;;;;;;;;;;5101882;28;1910;-64
2022/06/26 07:20:35;;;;;;;;;;;;;;;;;;5101836;28;901;-64
2022/06/26 07:23:01;;;;;;;;;;;;;;;;;;5102351;28;868;-63
2022/06/26 07:25:26;;;;;;;;;;;;;;;;;;5101833;28;1024;-64
2022/06/26 07:27:51;;;;;;;;;;;;;;;;;;5101824;28;1219;-64
2022/06/26 07:30:17;;;;;;;;;;;;;;;;;;5102103;28;869;-64
2022/06/26 07:32:42;;;;;;;;;;;;;;;;;;5102034;28;813;-64
2022/06/26 07:35:08;;;;;;;;;;;;;;;;;;5101988;28;948;-64
2022/06/26 07:37:33;;;;;;;;;;;;;;;;;;5101394;28;1976;-64
2022/06/26 07:39:59;;;;;;;;;;;;;;;;;;5101920;28;817;-64
2022/06/26 07:42:24;;;;;;;;;;;;;;;;;;5101695;28;841;-64
2022/06/26 07:44:49;;;;;;;;;;;;;;;;;;5102000;28;901;-63
2022/06/26 07:47:17;;;;;;;;;;;;;;;;;;5101399;28;1199;-63
2022/06/26 07:49:42;;;;;;;;;;;;;;;;;;5101631;28;905;-63
2022/06/26 07:52:07;;;;;;;;;;;;;;;;;;5101855;28;1000;-63
2022/06/26 07:54:32;;;;;;;;;;;;;;;;;;5101850;28;936;-63
2022/06/26 07:56:58;;;;;;;;;;;;;;;;;;5101176;28;1890;-63
2022/06/26 07:59:24;;;;;;;;;;;;;;;;;;5101628;28;881;-62
2022/06/26 08:01:49;;;;;;;;;;;;;;;;;;5101567;28;884;-63
2022/06/26 08:04:14;;;;;;;;;;;;;;;;;;5101512;28;774;-63
2022/06/26 08:06:39;;;;;;;;;;;;;;;;;;5101316;28;1270;-63
2022/06/26 08:09:05;;;;;;;;;;;;;;;;;;5101223;28;865;-62
2022/06/26 08:11:30;;;;;;;;;;;;;;;;;;5101655;28;870;-62
2022/06/26 08:13:55;;;;;;;;;;;;;;;;;;5101379;28;943;-62
2022/06/26 08:16:20;;;;;;;;;;;;;;;;;;5101128;28;1187;-62
2022/06/26 08:18:46;;;;;;;;;;;;;;;;;;5101053;28;1886;-62
2022/06/26 08:23:55;;;;;;;;;;;;;;;;;;5101652;28;683;-63
2022/06/26 08:26:20;;;;;;;;;;;;;;;;;;5101038;28;1196;-63
2022/06/26 08:28:45;;;;;;;;;;;;;;;;;;5101046;28;949;-62
2022/06/26 08:31:10;;;;;;;;;;;;;;;;;;5101283;28;798;-62
2022/06/26 08:33:35;;;;;;;;;;;;;;;;;;5101088;28;977;-63
2022/06/26 08:36:01;;;;;;;;;;;;;;;;;;5100982;28;1196;-63
2022/06/26 08:38:26;;;;;;;;;;;;;;;;;;5102998;28;1898;-63
2022/06/26 08:40:51;;;;;;;;;;;;;;;;;;5104760;28;1035;-62
2022/06/26 08:43:20;;;;;;;;;;;;;;;;;;5104808;28;913;-62
2022/06/26 08:45:46;;;;;;;;;;;;;;;;;;5104377;28;941;-63
2022/06/26 08:48:12;;;;;;;;;;;;;;;;;;5104432;28;1156;-62
2022/06/26 08:50:38;;;;;;;;;;;;;;;;;;5104518;28;797;-63
2022/06/26 08:53:03;;;;;;;;;;;;;;;;;;5104818;28;806;-63
2022/06/26 08:55:28;;;;;;;;;;;;;;;;;;5104351;28;1135;-63
2022/06/26 08:57:53;;;;;;;;;;;;;;;;;;5104228;28;1881;-62
2022/06/26 09:00:19;;;;;;;;;;;;;;;;;;5104289;28;790;-63
2022/06/26 09:02:44;;;;;;;;;;;;;;;;;;5104241;28;842;-62
2022/06/26 09:05:10;;;;;;;;;;;;;;;;;;5104269;28;817;-63
2022/06/26 09:07:45;;;;;;;;;;;;;;;;;;5103972;28;1175;-63
2022/06/26 09:10:11;;;;;;;;;;;;;;;;;;5104244;28;879;-63
2022/06/26 09:12:36;;;;;;;;;;;;;;;;;;5104131;28;778;-62
2022/06/26 09:15:02;;;;;;;;;;;;;;;;;;5104483;28;852;-63
2022/06/26 09:17:27;;;;;;;;;;;;;;;;;;5103595;28;1895;-63
2022/06/26 09:19:54;;;;;;;;;;;;;;;;;;5104242;28;983;-63
2022/06/26 09:22:22;;;;;;;;;;;;;;;;;;5103819;28;1120;-63
2022/06/26 09:24:55;;;;;;;;;;;;;;;;;;5104101;28;887;-62
2022/06/26 09:27:21;;;;;;;;;;;;;;;;;;5103536;28;1183;-63
2022/06/26 09:29:50;;;;;;;;;;;;;;;;;;5104419;28;747;-63
2022/06/26 09:32:15;;;;;;;;;;;;;;;;;;5103862;28;821;-63
2022/06/26 09:34:48;;;;;;;;;;;;;;;;;;5103817;28;907;-62
2022/06/26 09:37:13;;;;;;;;;;;;;;;;;;5103449;28;1893;-62
2022/06/26 09:39:38;;;;;;;;;;;;;;;;;;5103660;28;790;-62
2022/06/26 09:42:15;;;;;;;;;;;;;;;;;;5103706;28;814;-62
2022/06/26 09:44:48;;;;;;;;;;;;;;;;;;5103641;28;817;-62
2022/06/26 09:47:35;;;;;;;;;;;;;;;;;;5103390;28;1191;-62
2022/06/26 09:50:00;;;;;;;;;;;;;;;;;;5102035;28;798;-63
2022/06/26 09:52:27;;;;;;;;;;;;;;;;;;5103586;28;865;-63
2022/06/26 09:54:53;;;;;;;;;;;;;;;;;;5103378;28;1075;-63
2022/06/26 09:57:18;;;;;;;;;;;;;;;;;;5103237;28;1988;-63
2022/06/26 09:59:43;;;;;;;;;;;;;;;;;;5103309;28;889;-63
2022/06/26 10:07:39;;;;;;;;;;;;;;;;;;5103214;28;1293;-63
2022/06/26 10:10:04;;;;;;;;;;;;;;;;;;5103372;28;984;-63
2022/06/26 10:12:30;;;;;;;;;;;;;;;;;;5103271;28;806;-63
2022/06/26 10:14:55;;;;;;;;;;;;;;;;;;5103135;28;901;-63
2022/06/26 10:17:27;;;;;;;;;;;;;;;;;;5103000;28;1890;-62
2022/06/26 10:20:12;;;;;;;;;;;;;;;;;;5103398;28;992;-62
2022/06/26 10:22:41;;;;;;;;;;;;;;;;;;5101894;28;1452;-63
2022/06/26 10:25:07;;;;;;;;;;;;;;;;;;5103115;28;790;-63
2022/06/26 10:27:33;;;;;;;;;;;;;;;;;;5102471;28;1179;-63
2022/06/26 10:30:25;;;;;;;;;;;;;;;;;;5103085;28;988;-63
2022/06/26 10:33:06;;;;;;;;;;;;;;;;;;5099873;28;1995;-63
2022/06/26 10:35:39;;;;;;;;;;;;;;;;;;5102843;28;979;-63
2022/06/26 10:38:40;;;;;;;;;;;;;;;;;;5102201;28;2039;-63
2022/06/26 10:44:01;;;;;;;;;;;;;;;;;;5099413;28;1278;-63
2022/06/26 10:46:34;;;;;;;;;;;;;;;;;;5102401;28;1120;-62
2022/06/26 10:48:59;;;;;;;;;;;;;;;;;;5102763;28;917;-62
2022/06/26 10:51:26;;;;;;;;;;;;;;;;;;5102586;28;787;-63
2022/06/26 10:53:51;;;;;;;;;;;;;;;;;;5102550;28;976;-63
2022/06/26 10:56:16;;;;;;;;;;;;;;;;;;5102422;28;1311;-63
2022/06/26 10:58:51;;;;;;;;;;;;;;;;;;5102310;28;1894;-63
2022/06/26 11:01:20;;;;;;;;;;;;;;;;;;5101952;28;945;-63
2022/06/26 11:03:45;;;;;;;;;;;;;;;;;;5102375;28;824;-63
2022/06/26 11:06:12;;;;;;;;;;;;;;;;;;5102348;28;1266;-63
2022/06/26 11:08:43;;;;;;;;;;;;;;;;;;5102427;28;992;-63
2022/06/26 11:11:09;;;;;;;;;;;;;;;;;;5102276;28;940;-63
2022/06/26 11:13:35;;;;;;;;;;;;;;;;;;5102081;28;810;-63
2022/06/26 11:16:01;;;;;;;;;;;;;;;;;;5102150;28;1288;-63
2022/06/26 11:18:32;;;;;;;;;;;;;;;;;;5102284;28;1968;-63
2022/06/26 11:20:57;;;;;;;;;;;;;;;;;;5102320;28;802;-63
2022/06/26 11:23:22;;;;;;;;;;;;;;;;;;5102682;28;806;-63
2022/06/26 11:25:49;;;;;;;;;;;;;;;;;;5101962;28;901;-63
2022/06/26 11:28:16;;;;;;;;;;;;;;;;;;5101781;28;1187;-63
2022/06/26 11:30:42;;;;;;;;;;;;;;;;;;5101838;28;861;-63
2022/06/26 11:33:08;;;;;;;;;;;;;;;;;;5102096;28;837;-62
2022/06/26 11:35:36;;;;;;;;;;;;;;;;;;5101580;28;856;-63
2022/06/26 11:38:09;;;;;;;;;;;;;;;;;;5101605;28;1894;-63
2022/06/26 11:40:34;;;;;;;;;;;;;;;;;;5101619;28;937;-63
2022/06/26 11:43:01;;;;;;;;;;;;;;;;;;5102054;28;1031;-63
2022/06/26 11:45:26;;;;;;;;;;;;;;;;;;5101607;28;846;-62
2022/06/26 11:47:54;;;;;;;;;;;;;;;;;;5101465;28;1262;-63
2022/06/26 11:50:20;;;;;;;;;;;;;;;;;;5101537;28;901;-63
2022/06/26 11:52:50;;;;;;;;;;;;;;;;;;5101944;28;818;-63
2022/06/26 11:55:15;;;;;;;;;;;;;;;;;;5101647;28;873;-63
2022/06/26 11:57:41;;;;;;;;;;;;;;;;;;5101060;28;1922;-63
2022/06/26 12:00:06;;;;;;;;;;;;;;;;;;5101671;28;988;-63
2022/06/26 12:02:31;;;;;;;;;;;;;;;;;;5101528;28;860;-63
2022/06/26 12:04:57;;;;;;;;;;;;;;;;;;5101625;28;1047;-63
2022/06/26 12:07:22;;;;;;;;;;;;;;;;;;5100987;28;1259;-63
2022/06/26 12:09:48;;;;;;;;;;;;;;;;;;5101529;28;944;-63
2022/06/26 12:12:13;;;;;;;;;;;;;;;;;;5100329;28;976;-63
2022/06/26 12:14:43;;;;;;;;;;;;;;;;;;5101716;28;822;-63
2022/06/26 12:17:08;;;;;;;;;;;;;;;;;;5100953;28;1902;-63
2022/06/26 12:19:37;;;;;;;;;;;;;;;;;;5101589;28;850;-63
2022/06/26 12:22:03;;;;;;;;;;;;;;;;;;5101232;28;846;-63
2022/06/26 12:24:28;;;;;;;;;;;;;;;;;;5101175;28;1033;-63
2022/06/26 12:26:56;;;;;;;;;;;;;;;;;;5101056;28;1262;-63
2022/06/26 12:29:21;;;;;;;;;;;;;;;;;;5101214;28;892;-63
2022/06/26 12:31:48;;;;;;;;;;;;;;;;;;5101269;28;1035;-63
2022/06/26 12:34:13;;;;;;;;;;;;;;;;;;5101036;28;826;-62
2022/06/26 12:36:38;;;;;;;;;;;;;;;;;;5100897;28;1194;-63
2022/06/26 12:39:05;;;;;;;;;;;;;;;;;;5100887;28;1901;-63
2022/06/26 12:41:30;;;;;;;;;;;;;;;;;;5101132;28;896;-63
2022/06/26 12:43:57;;;;;;;;;;;;;;;;;;5101071;28;976;-63
2022/06/26 12:46:22;;;;;;;;;;;;;;;;;;5101088;28;1282;-62
2022/06/26 12:48:48;;;;;;;;;;;;;;;;;;5100768;28;1709;-62
2022/06/26 12:51:14;;;;;;;;;;;;;;;;;;5100912;28;829;-63
2022/06/26 12:53:39;;;;;;;;;;;;;;;;;;5101048;28;996;-63
2022/06/26 12:56:05;;;;;;;;;;;;;;;;;;5100713;28;1194;-63
2022/06/26 12:58:30;;;;;;;;;;;;;;;;;;5099387;28;1894;-62
2022/06/26 13:00:56;;;;;;;;;;;;;;;;;;5100735;28;841;-63
2022/06/26 13:03:21;;;;;;;;;;;;;;;;;;5100963;28;856;-63
2022/06/26 13:05:47;;;;;;;;;;;;;;;;;;5100633;28;792;-63
2022/06/26 13:08:14;;;;;;;;;;;;;;;;;;5100458;28;1156;-64
2022/06/26 13:10:40;;;;;;;;;;;;;;;;;;5100644;28;896;-63
2022/06/26 13:13:05;;;;;;;;;;;;;;;;;;5100901;28;822;-63
2022/06/26 13:15:30;;;;;;;;;;;;;;;;;;5100625;28;976;-63
2022/06/26 13:17:55;;;;;;;;;;;;;;;;;;5100434;28;1962;-63
2022/06/26 13:20:20;;;;;;;;;;;;;;;;;;5100614;28;889;-63
2022/06/26 13:22:46;;;;;;;;;;;;;;;;;;5100549;28;889;-63
2022/06/26 13:25:11;;;;;;;;;;;;;;;;;;5102474;28;886;-63
2022/06/26 13:27:36;;;;;;;;;;;;;;;;;;5102280;28;1302;-62
2022/06/26 13:30:01;;;;;;;;;;;;;;;;;;5104121;28;873;-62
2022/06/26 13:32:26;;;;;;;;;;;;;;;;;;5103698;28;1028;-63
2022/06/26 13:34:52;;;;;;;;;;;;;;;;;;5103824;28;921;-63
2022/06/26 13:37:18;;;;;;;;;;;;;;;;;;5103270;28;1897;-63
2022/06/26 13:39:43;;;;;;;;;;;;;;;;;;5104129;28;822;-63
2022/06/26 13:42:08;;;;;;;;;;;;;;;;;;5103715;28;790;-62
2022/06/26 13:44:33;;;;;;;;;;;;;;;;;;5103884;28;886;-63
2022/06/26 13:46:59;;;;;;;;;;;;;;;;;;5103418;28;1277;-62
2022/06/26 13:49:24;;;;;;;;;;;;;;;;;;5103628;28;984;-63
2022/06/26 13:51:49;;;;;;;;;;;;;;;;;;5103444;28;992;-63
2022/06/26 13:54:14;;;;;;;;;;;;;;;;;;5103382;28;806;-63
2022/06/26 13:56:39;;;;;;;;;;;;;;;;;;5103279;28;1258;-63
2022/06/26 13:59:05;;;;;;;;;;;;;;;;;;5103390;28;1890;-63
2022/06/26 14:01:30;;;;;;;;;;;;;;;;;;5103687;28;881;-63
2022/06/26 14:03:55;;;;;;;;;;;;;;;;;;5103159;28;1027;-63
2022/06/26 14:06:21;;;;;;;;;;;;;;;;;;5103359;28;1246;-63
2022/06/26 14:08:46;;;;;;;;;;;;;;;;;;5102040;28;818;-63
2022/06/26 14:11:11;;;;;;;;;;;;;;;;;;5103398;28;858;-63
2022/06/26 14:13:37;;;;;;;;;;;;;;;;;;5103155;28;881;-63
2022/06/26 14:16:02;;;;;;;;;;;;;;;;;;5103276;28;1270;-61
2022/06/26 14:18:27;;;;;;;;;;;;;;;;;;5102986;28;1957;-63
2022/06/26 14:20:53;;;;;;;;;;;;;;;;;;5102903;28;834;-63
2022/06/26 14:26:03;;;;;;;;;;;;;;;;;;5103245;28;1226;-63
2022/06/26 14:28:29;;;;;;;;;;;;;;;;;;5102933;28;869;-63
2022/06/26 14:30:56;;;;;;;;;;;;;;;;;;5102843;28;964;-63
2022/06/26 14:33:21;;;;;;;;;;;;;;;;;;5102794;28;850;-63
2022/06/26 14:35:47;;;;;;;;;;;;;;;;;;5102148;28;953;-63
2022/06/26 14:38:12;;;;;;;;;;;;;;;;;;5102628;28;1969;-63
2022/06/26 14:40:38;;;;;;;;;;;;;;;;;;5102697;28;844;-63
2022/06/26 14:43:04;;;;;;;;;;;;;;;;;;5103185;28;787;-63
2022/06/26 14:45:29;;;;;;;;;;;;;;;;;;5102755;28;837;-63
2022/06/26 14:47:54;;;;;;;;;;;;;;;;;;5102457;28;1214;-63
2022/06/26 14:50:19;;;;;;;;;;;;;;;;;;5102613;28;932;-62
2022/06/26 14:52:45;;;;;;;;;;;;;;;;;;5102492;28;1000;-62
2022/06/26 14:55:11;;;;;;;;;;;;;;;;;;5102672;28;869;-62
2022/06/26 14:57:36;;;;;;;;;;;;;;;;;;5102092;28;1979;-62
2022/06/26 15:00:03;;;;;;;;;;;;;;;;;;5102737;28;988;-63
2022/06/26 15:02:28;;;;;;;;;;;;;;;;;;5102047;28;965;-63
2022/06/26 15:04:53;;;;;;;;;;;;;;;;;;5102519;28;798;-63
2022/06/26 15:07:18;;;;;;;;;;;;;;;;;;5102041;28;1286;-63
2022/06/26 15:09:43;;;;;;;;;;;;;;;;;;5102514;28;786;-63
2022/06/26 15:12:09;;;;;;;;;;;;;;;;;;5102254;28;845;-61
2022/06/26 15:14:34;;;;;;;;;;;;;;;;;;5102452;28;869;-63
2022/06/26 15:16:59;;;;;;;;;;;;;;;;;;5101731;28;1897;-63
2022/06/26 15:19:25;;;;;;;;;;;;;;;;;;5102211;28;929;-63
2022/06/26 15:21:50;;;;;;;;;;;;;;;;;;5101009;28;1053;-63
2022/06/26 15:24:15;;;;;;;;;;;;;;;;;;5102065;28;873;-62
2022/06/26 15:26:40;;;;;;;;;;;;;;;;;;5101948;28;1175;-63
2022/06/26 15:29:06;;;;;;;;;;;;;;;;;;5101912;28;996;-63
2022/06/26 15:31:31;;;;;;;;;;;;;;;;;;5102123;28;845;-63
2022/06/26 15:33:56;;;;;;;;;;;;;;;;;;5101584;28;988;-63
2022/06/26 15:36:22;;;;;;;;;;;;;;;;;;5101677;28;1294;-62
2022/06/26 15:38:47;;;;;;;;;;;;;;;;;;5101890;28;1955;-62
2022/06/26 15:41:12;;;;;;;;;;;;;;;;;;5101884;28;1008;-63
2022/06/26 15:43:38;;;;;;;;;;;;;;;;;;5101712;28;889;-63
2022/06/26 15:46:04;;;;;;;;;;;;;;;;;;5101655;28;1182;-63
2022/06/26 15:48:30;;;;;;;;;;;;;;;;;;5101552;28;873;-63
2022/06/26 15:50:55;;;;;;;;;;;;;;;;;;5101639;28;821;-62
2022/06/26 15:53:21;;;;;;;;;;;;;;;;;;5101660;28;1155;-63
2022/06/26 15:55:46;;;;;;;;;;;;;;;;;;5101522;28;845;-63
2022/06/26 15:58:11;;;;;;;;;;;;;;;;;;5101348;28;1893;-63
2022/06/26 16:00:37;;;;;;;;;;;;;;;;;;5101458;28;992;-63
2022/06/26 16:03:02;;;;;;;;;;;;;;;;;;5101574;28;897;-63
2022/06/26 16:05:27;;;;;;;;;;;;;;;;;;5101426;28;877;-62
2022/06/26 16:07:52;;;;;;;;;;;;;;;;;;5101383;28;1179;-63
2022/06/26 16:10:17;;;;;;;;;;;;;;;;;;5101364;28;802;-63
2022/06/26 16:12:42;;;;;;;;;;;;;;;;;;5101725;28;798;-63
2022/06/26 16:15:08;;;;;;;;;;;;;;;;;;5101420;28;996;-62
2022/06/26 16:17:33;;;;;;;;;;;;;;;;;;5100951;28;1898;-63
2022/06/26 16:19:58;;;;;;;;;;;;;;;;;;5101469;28;893;-63
2022/06/26 16:27:51;;;;;;;;;;;;;;;;;;5101106;28;1285;-63
2022/06/26 16:30:16;;;;;;;;;;;;;;;;;;5101967;28;988;-63
2022/06/26 16:32:42;;;;;;;;;;;;;;;;;;5101173;28;901;-63
2022/06/26 16:35:08;;;;;;;;;;;;;;;;;;5101143;28;924;-63
2022/06/26 16:37:34;;;;;;;;;;;;;;;;;;5100814;28;1901;-63
2022/06/26 16:40:00;;;;;;;;;;;;;;;;;;5101630;28;884;-63
2022/06/26 16:42:26;;;;;;;;;;;;;;;;;;5100981;28;829;-63
2022/06/26 16:44:51;;;;;;;;;;;;;;;;;;5101295;28;920;-63
2022/06/26 16:47:16;;;;;;;;;;;;;;;;;;5100600;28;1206;-63
2022/06/26 16:49:41;;;;;;;;;;;;;;;;;;5099914;28;893;-63
2022/06/26 16:52:08;;;;;;;;;;;;;;;;;;5101150;28;798;-63
2022/06/26 16:54:33;;;;;;;;;;;;;;;;;;5100767;28;969;-63
2022/06/26 16:56:58;;;;;;;;;;;;;;;;;;5100619;28;1181;-63
2022/06/26 16:59:23;;;;;;;;;;;;;;;;;;5102689;28;1889;-63
2022/06/26 17:01:49;;;;;;;;;;;;;;;;;;5104543;28;889;-63
2022/06/26 17:04:14;;;;;;;;;;;;;;;;;;5104366;28;878;-63
2022/06/26 17:06:39;;;;;;;;;;;;;;;;;;5104235;28;1247;-63
2022/06/26 17:09:04;;;;;;;;;;;;;;;;;;5104316;28;977;-62
2022/06/26 17:11:29;;;;;;;;;;;;;;;;;;5104362;28;928;-63
2022/06/26 17:13:55;;;;;;;;;;;;;;;;;;5104058;28;826;-62
2022/06/26 17:16:20;;;;;;;;;;;;;;;;;;5104212;28;1282;-63
2022/06/26 17:18:45;;;;;;;;;;;;;;;;;;5104158;28;1983;-63
2022/06/26 17:21:11;;;;;;;;;;;;;;;;;;5103873;28;790;-63
2022/06/26 17:23:36;;;;;;;;;;;;;;;;;;5104210;28;877;-63
2022/06/26 17:26:01;;;;;;;;;;;;;;;;;;5104065;28;1242;-63
2022/06/26 17:28:27;;;;;;;;;;;;;;;;;;5103638;28;999;-63